Hlavní strana
METAR-TAF:

METAR-TAF

Letiště :

Letiště Johannesburg

Johannesburg, Jihoafrická republika

zeměpisná šířka: 26-08S, zeměpisná délka: 028-14E, výška: 1694 m

Aktuální stav počasí

Zpráva byla vytvořena před 28 minutami, v 04:00 UTC
Severní vítr 18 kt
Teplota 13°C
Vlhkost vzduchu 94%
Tlak 1018 hPa
Viditelnost 10 km a více
Zataženo ve výšce 400 ft
Skoro jasno , Cumulonimbus.
bouřka, slabý déšť

METAR: FAOR 010400Z 36018KT 9999 -TSRA OVC004 FEW///CB 13/12 Q1018 NOSIG

Čas: 06:28 (04:28 UTC)

Předpověď počasí

Zpráva byla vytvořena před 1 hodinou a 58 minutami, v 02:30 UTC
Předpověď platná od 01 v 00 UTC do 02 v 06 UTC
Severní vítr 18 kt
Viditelnost 10 km a více
Zataženo ve výšce 500 ft

TAF: FAOR 010230Z 0100/0206 36018KT 9999 OVC005 CHECK TEXT NEW ENDING ADDED GMMMYFYX

Stav a předpovědi počasí z více než 4 000 letišť (zprávy METAR a TAF).

Červené a žluté tečky na mapě představují dostupné meteorologické stanice.

Když kurzor umístíte na tečku, zobrazí se název stanice.

Pak kliknutím zobrazíte stav a předpověď počasí.

Chcete-li změnit mapu, kliknutím na zelené tlačítko se znaménkem +mapu přiblížíte, kliknutím na zelené tlačítko se znaménkem – mapu oddálíte a kliknutím na zelené šipky přejdete na sousední mapy.


METAR-TAF: